sensor_id;sensor_type;location;lat;lon;timestamp;temperature;humidity
10083;DHT22;5080;48.528;8.078;2023-08-21T00:01:45;25.50;99.90
10083;DHT22;5080;48.528;8.078;2023-08-21T00:04:13;25.50;99.90
10083;DHT22;5080;48.528;8.078;2023-08-21T00:06:40;25.50;99.90
10083;DHT22;5080;48.528;8.078;2023-08-21T00:09:06;25.60;99.90
10083;DHT22;5080;48.528;8.078;2023-08-21T00:11:34;25.50;99.90
10083;DHT22;5080;48.528;8.078;2023-08-21T00:14:00;25.50;99.90
10083;DHT22;5080;48.528;8.078;2023-08-21T00:16:27;25.50;99.90
10083;DHT22;5080;48.528;8.078;2023-08-21T00:18:54;25.60;99.90
10083;DHT22;5080;48.528;8.078;2023-08-21T00:21:23;25.60;99.90
10083;DHT22;5080;48.528;8.078;2023-08-21T00:23:50;25.60;99.90
10083;DHT22;5080;48.528;8.078;2023-08-21T00:26:17;25.60;99.90
10083;DHT22;5080;48.528;8.078;2023-08-21T00:28:44;25.60;99.90
10083;DHT22;5080;48.528;8.078;2023-08-21T00:31:10;25.60;99.90
10083;DHT22;5080;48.528;8.078;2023-08-21T00:33:37;25.60;99.90
10083;DHT22;5080;48.528;8.078;2023-08-21T00:36:04;25.60;99.90
10083;DHT22;5080;48.528;8.078;2023-08-21T00:38:33;25.60;99.90
10083;DHT22;5080;48.528;8.078;2023-08-21T00:40:59;25.70;99.90
10083;DHT22;5080;48.528;8.078;2023-08-21T00:43:26;25.50;99.90
10083;DHT22;5080;48.528;8.078;2023-08-21T00:45:53;25.40;99.90
10083;DHT22;5080;48.528;8.078;2023-08-21T00:48:20;25.40;99.90
10083;DHT22;5080;48.528;8.078;2023-08-21T00:50:48;25.40;99.90
10083;DHT22;5080;48.528;8.078;2023-08-21T00:53:16;25.30;99.90
10083;DHT22;5080;48.528;8.078;2023-08-21T00:55:45;25.30;99.90
10083;DHT22;5080;48.528;8.078;2023-08-21T00:58:12;25.00;99.90
10083;DHT22;5080;48.528;8.078;2023-08-21T01:00:41;24.80;99.90
10083;DHT22;5080;48.528;8.078;2023-08-21T01:03:08;24.70;99.90
10083;DHT22;5080;48.528;8.078;2023-08-21T01:05:35;24.60;99.90
10083;DHT22;5080;48.528;8.078;2023-08-21T01:08:05;24.50;99.90
10083;DHT22;5080;48.528;8.078;2023-08-21T01:10:51;24.40;99.90
10083;DHT22;5080;48.528;8.078;2023-08-21T01:13:34;24.30;99.90
10083;DHT22;5080;48.528;8.078;2023-08-21T01:16:07;24.20;99.90
10083;DHT22;5080;48.528;8.078;2023-08-21T01:18:34;24.20;99.90
10083;DHT22;5080;48.528;8.078;2023-08-21T01:21:02;24.10;99.90
10083;DHT22;5080;48.528;8.078;2023-08-21T01:23:35;24.10;99.90
10083;DHT22;5080;48.528;8.078;2023-08-21T01:26:02;24.00;99.90
10083;DHT22;5080;48.528;8.078;2023-08-21T01:28:30;24.00;99.90
10083;DHT22;5080;48.528;8.078;2023-08-21T01:31:01;24.00;99.90
10083;DHT22;5080;48.528;8.078;2023-08-21T01:33:31;23.90;99.90
10083;DHT22;5080;48.528;8.078;2023-08-21T01:36:02;23.90;99.90
10083;DHT22;5080;48.528;8.078;2023-08-21T01:38:31;23.80;99.90
10083;DHT22;5080;48.528;8.078;2023-08-21T01:41:00;23.70;99.90
10083;DHT22;5080;48.528;8.078;2023-08-21T01:43:27;23.60;99.90
10083;DHT22;5080;48.528;8.078;2023-08-21T01:45:54;23.60;99.90
10083;DHT22;5080;48.528;8.078;2023-08-21T01:48:21;23.60;99.90
10083;DHT22;5080;48.528;8.078;2023-08-21T01:50:48;23.60;99.90
10083;DHT22;5080;48.528;8.078;2023-08-21T01:53:15;23.60;99.90
10083;DHT22;5080;48.528;8.078;2023-08-21T01:55:41;23.50;99.90
10083;DHT22;5080;48.528;8.078;2023-08-21T01:58:09;23.50;99.90
10083;DHT22;5080;48.528;8.078;2023-08-21T02:00:36;23.60;99.90
10083;DHT22;5080;48.528;8.078;2023-08-21T02:03:03;23.60;99.90
10083;DHT22;5080;48.528;8.078;2023-08-21T02:05:30;23.60;99.90
10083;DHT22;5080;48.528;8.078;2023-08-21T02:07:57;23.60;99.90
10083;DHT22;5080;48.528;8.078;2023-08-21T02:10:24;23.60;99.90
10083;DHT22;5080;48.528;8.078;2023-08-21T02:12:51;23.50;99.90
10083;DHT22;5080;48.528;8.078;2023-08-21T02:15:20;23.60;99.90
10083;DHT22;5080;48.528;8.078;2023-08-21T02:17:48;23.60;99.90
10083;DHT22;5080;48.528;8.078;2023-08-21T02:20:15;23.70;99.90
10083;DHT22;5080;48.528;8.078;2023-08-21T02:22:42;23.80;99.90
10083;DHT22;5080;48.528;8.078;2023-08-21T02:25:09;23.80;99.90
10083;DHT22;5080;48.528;8.078;2023-08-21T02:27:35;23.80;99.90
10083;DHT22;5080;48.528;8.078;2023-08-21T02:30:03;23.80;99.90
10083;DHT22;5080;48.528;8.078;2023-08-21T02:32:31;23.80;99.90
10083;DHT22;5080;48.528;8.078;2023-08-21T02:34:58;23.70;99.90
10083;DHT22;5080;48.528;8.078;2023-08-21T02:37:24;23.70;99.90
10083;DHT22;5080;48.528;8.078;2023-08-21T02:39:51;23.60;99.90
10083;DHT22;5080;48.528;8.078;2023-08-21T02:42:18;23.60;99.90
10083;DHT22;5080;48.528;8.078;2023-08-21T02:44:45;23.60;99.90
10083;DHT22;5080;48.528;8.078;2023-08-21T02:47:12;23.50;99.90
10083;DHT22;5080;48.528;8.078;2023-08-21T02:49:40;23.50;99.90
10083;DHT22;5080;48.528;8.078;2023-08-21T02:52:07;23.40;99.90
10083;DHT22;5080;48.528;8.078;2023-08-21T02:54:34;23.30;99.90
10083;DHT22;5080;48.528;8.078;2023-08-21T02:57:01;23.20;99.90
10083;DHT22;5080;48.528;8.078;2023-08-21T02:59:28;23.20;99.90
10083;DHT22;5080;48.528;8.078;2023-08-21T03:01:54;23.10;99.90
10083;DHT22;5080;48.528;8.078;2023-08-21T03:04:21;23.00;99.90
10083;DHT22;5080;48.528;8.078;2023-08-21T03:06:50;22.90;99.90
10083;DHT22;5080;48.528;8.078;2023-08-21T03:09:16;22.90;99.90
10083;DHT22;5080;48.528;8.078;2023-08-21T03:11:43;22.90;99.90
10083;DHT22;5080;48.528;8.078;2023-08-21T03:14:10;22.80;99.90
10083;DHT22;5080;48.528;8.078;2023-08-21T03:16:37;22.80;99.90
10083;DHT22;5080;48.528;8.078;2023-08-21T03:19:03;22.80;99.90
10083;DHT22;5080;48.528;8.078;2023-08-21T03:21:30;22.80;99.90
10083;DHT22;5080;48.528;8.078;2023-08-21T03:23:59;22.80;99.90
10083;DHT22;5080;48.528;8.078;2023-08-21T03:26:26;22.70;99.90
10083;DHT22;5080;48.528;8.078;2023-08-21T03:28:52;22.70;99.90
10083;DHT22;5080;48.528;8.078;2023-08-21T03:31:19;22.80;99.90
10083;DHT22;5080;48.528;8.078;2023-08-21T03:33:46;22.70;99.90
10083;DHT22;5080;48.528;8.078;2023-08-21T03:36:13;22.70;99.90
10083;DHT22;5080;48.528;8.078;2023-08-21T03:38:40;22.70;99.90
10083;DHT22;5080;48.528;8.078;2023-08-21T03:41:08;22.70;99.90
10083;DHT22;5080;48.528;8.078;2023-08-21T03:43:35;22.70;99.90
10083;DHT22;5080;48.528;8.078;2023-08-21T03:46:01;22.70;99.90
10083;DHT22;5080;48.528;8.078;2023-08-21T03:48:28;22.80;99.90
10083;DHT22;5080;48.528;8.078;2023-08-21T03:50:55;22.80;99.90
10083;DHT22;5080;48.528;8.078;2023-08-21T03:53:22;22.80;99.90
10083;DHT22;5080;48.528;8.078;2023-08-21T03:55:49;22.80;99.90
10083;DHT22;5080;48.528;8.078;2023-08-21T03:58:17;22.80;99.90
10083;DHT22;5080;48.528;8.078;2023-08-21T04:00:44;22.80;99.90
10083;DHT22;5080;48.528;8.078;2023-08-21T04:03:12;22.80;99.90
10083;DHT22;5080;48.528;8.078;2023-08-21T04:05:38;22.80;99.90
10083;DHT22;5080;48.528;8.078;2023-08-21T04:08:05;22.90;99.90
10083;DHT22;5080;48.528;8.078;2023-08-21T04:10:32;22.90;99.90
10083;DHT22;5080;48.528;8.078;2023-08-21T04:12:59;22.80;99.90
10083;DHT22;5080;48.528;8.078;2023-08-21T04:15:27;22.80;99.90
10083;DHT22;5080;48.528;8.078;2023-08-21T04:17:55;22.80;99.90
10083;DHT22;5080;48.528;8.078;2023-08-21T04:20:21;22.80;99.90
10083;DHT22;5080;48.528;8.078;2023-08-21T04:22:48;22.80;99.90
10083;DHT22;5080;48.528;8.078;2023-08-21T04:25:15;22.80;99.90
10083;DHT22;5080;48.528;8.078;2023-08-21T04:27:42;22.80;99.90
10083;DHT22;5080;48.528;8.078;2023-08-21T04:30:10;22.80;99.90
10083;DHT22;5080;48.528;8.078;2023-08-21T04:32:38;22.80;99.90
10083;DHT22;5080;48.528;8.078;2023-08-21T04:35:06;22.80;99.90
10083;DHT22;5080;48.528;8.078;2023-08-21T04:37:34;22.80;99.90
10083;DHT22;5080;48.528;8.078;2023-08-21T04:40:01;22.80;99.90
10083;DHT22;5080;48.528;8.078;2023-08-21T04:42:28;22.70;99.90
10083;DHT22;5080;48.528;8.078;2023-08-21T04:44:55;22.80;99.90
10083;DHT22;5080;48.528;8.078;2023-08-21T04:47:23;22.80;99.90
10083;DHT22;5080;48.528;8.078;2023-08-21T04:49:53;22.80;99.90
10083;DHT22;5080;48.528;8.078;2023-08-21T04:52:20;22.80;99.90
10083;DHT22;5080;48.528;8.078;2023-08-21T04:54:47;22.70;99.90
10083;DHT22;5080;48.528;8.078;2023-08-21T04:57:15;22.70;99.90
10083;DHT22;5080;48.528;8.078;2023-08-21T04:59:42;22.80;99.90
10083;DHT22;5080;48.528;8.078;2023-08-21T05:02:09;22.80;99.90
10083;DHT22;5080;48.528;8.078;2023-08-21T05:04:37;22.90;99.90
10083;DHT22;5080;48.528;8.078;2023-08-21T05:07:05;22.80;99.90
10083;DHT22;5080;48.528;8.078;2023-08-21T05:09:32;22.90;99.90
10083;DHT22;5080;48.528;8.078;2023-08-21T05:11:59;22.80;99.90
10083;DHT22;5080;48.528;8.078;2023-08-21T05:14:26;22.80;99.90
10083;DHT22;5080;48.528;8.078;2023-08-21T05:16:53;22.80;99.90
10083;DHT22;5080;48.528;8.078;2023-08-21T05:19:20;22.90;99.90
10083;DHT22;5080;48.528;8.078;2023-08-21T05:21:46;22.90;99.90
10083;DHT22;5080;48.528;8.078;2023-08-21T05:24:15;22.90;99.90
10083;DHT22;5080;48.528;8.078;2023-08-21T05:26:41;22.80;99.90
10083;DHT22;5080;48.528;8.078;2023-08-21T05:29:08;22.80;99.90
10083;DHT22;5080;48.528;8.078;2023-08-21T05:31:35;22.80;99.90
10083;DHT22;5080;48.528;8.078;2023-08-21T05:34:02;22.90;99.90
10083;DHT22;5080;48.528;8.078;2023-08-21T05:36:29;23.00;99.90
10083;DHT22;5080;48.528;8.078;2023-08-21T05:38:56;23.00;99.90
10083;DHT22;5080;48.528;8.078;2023-08-21T05:41:25;23.10;99.90
10083;DHT22;5080;48.528;8.078;2023-08-21T05:43:51;23.20;99.90
10083;DHT22;5080;48.528;8.078;2023-08-21T05:46:18;23.20;99.90
10083;DHT22;5080;48.528;8.078;2023-08-21T05:48:45;23.20;99.90
10083;DHT22;5080;48.528;8.078;2023-08-21T05:51:12;23.30;99.90
10083;DHT22;5080;48.528;8.078;2023-08-21T05:53:39;23.40;99.90
10083;DHT22;5080;48.528;8.078;2023-08-21T05:56:06;23.40;99.90
10083;DHT22;5080;48.528;8.078;2023-08-21T05:58:34;23.40;99.90
10083;DHT22;5080;48.528;8.078;2023-08-21T06:01:01;23.40;99.90
10083;DHT22;5080;48.528;8.078;2023-08-21T06:03:28;23.50;99.90
10083;DHT22;5080;48.528;8.078;2023-08-21T06:05:54;23.50;99.90
10083;DHT22;5080;48.528;8.078;2023-08-21T06:08:21;23.50;99.90
10083;DHT22;5080;48.528;8.078;2023-08-21T06:10:51;23.70;99.90
10083;DHT22;5080;48.528;8.078;2023-08-21T06:13:18;23.80;99.90
10083;DHT22;5080;48.528;8.078;2023-08-21T06:15:46;23.90;99.90
10083;DHT22;5080;48.528;8.078;2023-08-21T06:18:13;24.00;99.90
10083;DHT22;5080;48.528;8.078;2023-08-21T06:20:42;24.20;99.90
10083;DHT22;5080;48.528;8.078;2023-08-21T06:23:09;24.30;99.90
10083;DHT22;5080;48.528;8.078;2023-08-21T06:25:36;24.50;99.90
10083;DHT22;5080;48.528;8.078;2023-08-21T06:28:03;24.60;99.90
10083;DHT22;5080;48.528;8.078;2023-08-21T06:30:30;24.70;99.90
10083;DHT22;5080;48.528;8.078;2023-08-21T06:32:58;24.80;99.90
10083;DHT22;5080;48.528;8.078;2023-08-21T06:35:25;25.00;99.90
10083;DHT22;5080;48.528;8.078;2023-08-21T06:37:52;25.10;99.90
10083;DHT22;5080;48.528;8.078;2023-08-21T06:40:19;25.30;99.90
10083;DHT22;5080;48.528;8.078;2023-08-21T06:42:46;25.40;99.90
10083;DHT22;5080;48.528;8.078;2023-08-21T06:45:14;25.50;99.90
10083;DHT22;5080;48.528;8.078;2023-08-21T06:47:41;25.60;99.90
10083;DHT22;5080;48.528;8.078;2023-08-21T06:50:10;25.70;99.90
10083;DHT22;5080;48.528;8.078;2023-08-21T06:52:37;25.70;99.90
10083;DHT22;5080;48.528;8.078;2023-08-21T06:55:04;25.80;99.90
10083;DHT22;5080;48.528;8.078;2023-08-21T06:57:31;25.80;99.90
10083;DHT22;5080;48.528;8.078;2023-08-21T06:59:58;25.80;99.90
10083;DHT22;5080;48.528;8.078;2023-08-21T07:02:25;25.70;99.90
10083;DHT22;5080;48.528;8.078;2023-08-21T07:04:52;25.70;99.90
10083;DHT22;5080;48.528;8.078;2023-08-21T07:07:20;25.60;99.90
10083;DHT22;5080;48.528;8.078;2023-08-21T07:09:47;25.50;99.90
10083;DHT22;5080;48.528;8.078;2023-08-21T07:12:13;25.50;99.90
10083;DHT22;5080;48.528;8.078;2023-08-21T07:14:40;25.50;99.90
10083;DHT22;5080;48.528;8.078;2023-08-21T07:17:07;25.70;99.90
10083;DHT22;5080;48.528;8.078;2023-08-21T07:19:34;25.70;99.90
10083;DHT22;5080;48.528;8.078;2023-08-21T07:22:01;25.80;99.90
10083;DHT22;5080;48.528;8.078;2023-08-21T07:24:29;25.90;99.90
10083;DHT22;5080;48.528;8.078;2023-08-21T07:26:55;26.00;99.90
10083;DHT22;5080;48.528;8.078;2023-08-21T07:29:23;26.00;99.90
10083;DHT22;5080;48.528;8.078;2023-08-21T07:31:50;26.10;99.90
10083;DHT22;5080;48.528;8.078;2023-08-21T07:34:16;26.20;99.90
10083;DHT22;5080;48.528;8.078;2023-08-21T07:36:43;26.30;99.90
10083;DHT22;5080;48.528;8.078;2023-08-21T07:39:10;26.50;99.90
10083;DHT22;5080;48.528;8.078;2023-08-21T07:41:38;26.60;99.90
10083;DHT22;5080;48.528;8.078;2023-08-21T07:44:05;26.50;99.90
10083;DHT22;5080;48.528;8.078;2023-08-21T07:46:32;26.70;99.90
10083;DHT22;5080;48.528;8.078;2023-08-21T07:48:59;26.70;99.90
10083;DHT22;5080;48.528;8.078;2023-08-21T07:51:26;26.80;99.90
10083;DHT22;5080;48.528;8.078;2023-08-21T07:53:53;27.00;99.90
10083;DHT22;5080;48.528;8.078;2023-08-21T07:56:19;27.00;99.90
10083;DHT22;5080;48.528;8.078;2023-08-21T07:58:48;27.10;99.90
10083;DHT22;5080;48.528;8.078;2023-08-21T08:01:14;27.20;99.90
10083;DHT22;5080;48.528;8.078;2023-08-21T08:03:41;27.20;99.90
10083;DHT22;5080;48.528;8.078;2023-08-21T08:06:08;27.30;99.90
10083;DHT22;5080;48.528;8.078;2023-08-21T08:08:35;27.30;99.90
10083;DHT22;5080;48.528;8.078;2023-08-21T08:11:03;27.20;99.90
10083;DHT22;5080;48.528;8.078;2023-08-21T08:13:31;27.30;99.90
10083;DHT22;5080;48.528;8.078;2023-08-21T08:15:59;27.40;99.90
10083;DHT22;5080;48.528;8.078;2023-08-21T08:18:26;27.50;99.90
10083;DHT22;5080;48.528;8.078;2023-08-21T08:20:53;27.60;99.90
10083;DHT22;5080;48.528;8.078;2023-08-21T08:23:20;27.70;99.90
10083;DHT22;5080;48.528;8.078;2023-08-21T08:25:48;27.80;99.90
10083;DHT22;5080;48.528;8.078;2023-08-21T08:28:15;27.90;99.90
10083;DHT22;5080;48.528;8.078;2023-08-21T08:30:42;28.00;99.90
10083;DHT22;5080;48.528;8.078;2023-08-21T08:33:10;27.90;99.90
10083;DHT22;5080;48.528;8.078;2023-08-21T08:35:37;28.20;99.90
10083;DHT22;5080;48.528;8.078;2023-08-21T08:38:06;28.40;99.90
10083;DHT22;5080;48.528;8.078;2023-08-21T08:40:33;28.40;99.90
10083;DHT22;5080;48.528;8.078;2023-08-21T08:43:00;28.50;99.90
10083;DHT22;5080;48.528;8.078;2023-08-21T08:45:29;28.50;99.90
10083;DHT22;5080;48.528;8.078;2023-08-21T08:47:59;28.60;99.90
10083;DHT22;5080;48.528;8.078;2023-08-21T08:50:29;28.70;99.90
10083;DHT22;5080;48.528;8.078;2023-08-21T08:52:57;28.80;99.90
10083;DHT22;5080;48.528;8.078;2023-08-21T08:55:24;28.80;99.90
10083;DHT22;5080;48.528;8.078;2023-08-21T08:57:52;28.90;99.90
10083;DHT22;5080;48.528;8.078;2023-08-21T09:00:19;29.00;99.90
10083;DHT22;5080;48.528;8.078;2023-08-21T09:02:47;29.00;99.90
10083;DHT22;5080;48.528;8.078;2023-08-21T09:05:14;29.00;99.90
10083;DHT22;5080;48.528;8.078;2023-08-21T09:07:43;29.30;99.90
10083;DHT22;5080;48.528;8.078;2023-08-21T09:10:13;29.40;99.90
10083;DHT22;5080;48.528;8.078;2023-08-21T09:12:40;29.40;99.90
10083;DHT22;5080;48.528;8.078;2023-08-21T09:15:08;29.50;99.90
10083;DHT22;5080;48.528;8.078;2023-08-21T09:17:35;29.50;99.90
10083;DHT22;5080;48.528;8.078;2023-08-21T09:20:06;29.60;99.90
10083;DHT22;5080;48.528;8.078;2023-08-21T09:22:33;29.60;99.90
10083;DHT22;5080;48.528;8.078;2023-08-21T09:25:03;29.70;99.90
10083;DHT22;5080;48.528;8.078;2023-08-21T09:27:33;29.70;99.90
10083;DHT22;5080;48.528;8.078;2023-08-21T09:30:00;29.80;99.90
10083;DHT22;5080;48.528;8.078;2023-08-21T09:32:29;30.00;99.90
10083;DHT22;5080;48.528;8.078;2023-08-21T09:34:56;30.20;99.90
10083;DHT22;5080;48.528;8.078;2023-08-21T09:37:28;30.30;99.90
10083;DHT22;5080;48.528;8.078;2023-08-21T09:40:01;30.30;99.90
10083;DHT22;5080;48.528;8.078;2023-08-21T09:42:30;30.30;99.90
10083;DHT22;5080;48.528;8.078;2023-08-21T09:44:57;30.30;99.90
10083;DHT22;5080;48.528;8.078;2023-08-21T09:47:26;30.20;99.90
10083;DHT22;5080;48.528;8.078;2023-08-21T09:49:53;30.20;99.90
10083;DHT22;5080;48.528;8.078;2023-08-21T09:52:20;30.30;99.90
10083;DHT22;5080;48.528;8.078;2023-08-21T09:54:47;30.50;99.90
10083;DHT22;5080;48.528;8.078;2023-08-21T09:57:16;30.70;99.90
10083;DHT22;5080;48.528;8.078;2023-08-21T09:59:43;30.80;99.90
10083;DHT22;5080;48.528;8.078;2023-08-21T10:02:10;30.80;99.90
10083;DHT22;5080;48.528;8.078;2023-08-21T10:04:39;30.90;99.90
10083;DHT22;5080;48.528;8.078;2023-08-21T10:07:07;31.00;99.90
10083;DHT22;5080;48.528;8.078;2023-08-21T10:09:35;31.10;99.90
10083;DHT22;5080;48.528;8.078;2023-08-21T10:12:05;31.10;99.90
10083;DHT22;5080;48.528;8.078;2023-08-21T10:14:34;31.10;99.90
10083;DHT22;5080;48.528;8.078;2023-08-21T10:17:01;31.30;99.90
10083;DHT22;5080;48.528;8.078;2023-08-21T10:19:31;31.60;99.90
10083;DHT22;5080;48.528;8.078;2023-08-21T10:21:58;31.70;99.90
10083;DHT22;5080;48.528;8.078;2023-08-21T10:24:33;31.80;99.90
10083;DHT22;5080;48.528;8.078;2023-08-21T10:27:01;31.80;99.90
10083;DHT22;5080;48.528;8.078;2023-08-21T10:29:28;31.70;99.90
10083;DHT22;5080;48.528;8.078;2023-08-21T10:32:01;31.60;99.90
10083;DHT22;5080;48.528;8.078;2023-08-21T10:34:33;31.80;99.90
10083;DHT22;5080;48.528;8.078;2023-08-21T10:37:09;31.90;99.90
10083;DHT22;5080;48.528;8.078;2023-08-21T10:39:39;32.10;99.90
10083;DHT22;5080;48.528;8.078;2023-08-21T10:42:09;32.10;99.90
10083;DHT22;5080;48.528;8.078;2023-08-21T10:44:52;32.20;99.90
10083;DHT22;5080;48.528;8.078;2023-08-21T10:47:23;32.20;99.90
10083;DHT22;5080;48.528;8.078;2023-08-21T10:49:51;32.10;99.90
10083;DHT22;5080;48.528;8.078;2023-08-21T10:52:23;32.10;99.90
10083;DHT22;5080;48.528;8.078;2023-08-21T10:54:53;32.10;99.90
10083;DHT22;5080;48.528;8.078;2023-08-21T10:57:21;32.40;99.90
10083;DHT22;5080;48.528;8.078;2023-08-21T10:59:53;32.50;99.90
10083;DHT22;5080;48.528;8.078;2023-08-21T11:02:21;32.40;99.90
10083;DHT22;5080;48.528;8.078;2023-08-21T11:04:48;32.40;99.90
10083;DHT22;5080;48.528;8.078;2023-08-21T11:07:15;32.10;99.90
10083;DHT22;5080;48.528;8.078;2023-08-21T11:09:42;32.00;99.90
10083;DHT22;5080;48.528;8.078;2023-08-21T11:12:11;32.30;99.90
10083;DHT22;5080;48.528;8.078;2023-08-21T11:14:39;32.50;99.90
10083;DHT22;5080;48.528;8.078;2023-08-21T11:17:06;32.70;99.90
10083;DHT22;5080;48.528;8.078;2023-08-21T11:19:35;32.80;99.90
10083;DHT22;5080;48.528;8.078;2023-08-21T11:22:03;32.80;99.90
10083;DHT22;5080;48.528;8.078;2023-08-21T11:24:39;32.80;99.90
10083;DHT22;5080;48.528;8.078;2023-08-21T11:27:06;32.80;99.90
10083;DHT22;5080;48.528;8.078;2023-08-21T11:29:36;32.90;99.90
10083;DHT22;5080;48.528;8.078;2023-08-21T11:32:07;32.80;99.90
10083;DHT22;5080;48.528;8.078;2023-08-21T11:34:36;32.80;99.90
10083;DHT22;5080;48.528;8.078;2023-08-21T11:37:04;32.80;99.90
10083;DHT22;5080;48.528;8.078;2023-08-21T11:39:42;32.90;99.90
10083;DHT22;5080;48.528;8.078;2023-08-21T11:42:10;33.00;99.90
10083;DHT22;5080;48.528;8.078;2023-08-21T11:44:42;33.20;99.90
10083;DHT22;5080;48.528;8.078;2023-08-21T11:47:09;33.00;99.90
10083;DHT22;5080;48.528;8.078;2023-08-21T11:49:39;33.10;99.90
10083;DHT22;5080;48.528;8.078;2023-08-21T11:52:07;33.30;99.90
10083;DHT22;5080;48.528;8.078;2023-08-21T11:54:34;33.20;99.90
10083;DHT22;5080;48.528;8.078;2023-08-21T11:57:04;33.10;99.90
10083;DHT22;5080;48.528;8.078;2023-08-21T11:59:31;33.10;99.90
10083;DHT22;5080;48.528;8.078;2023-08-21T12:01:58;32.90;99.90
10083;DHT22;5080;48.528;8.078;2023-08-21T12:04:25;33.00;99.90
10083;DHT22;5080;48.528;8.078;2023-08-21T12:06:53;33.00;99.90
10083;DHT22;5080;48.528;8.078;2023-08-21T12:09:20;33.10;99.90
10083;DHT22;5080;48.528;8.078;2023-08-21T12:11:47;33.30;99.90
10083;DHT22;5080;48.528;8.078;2023-08-21T12:14:14;33.40;99.90
10083;DHT22;5080;48.528;8.078;2023-08-21T12:16:42;33.60;99.90
10083;DHT22;5080;48.528;8.078;2023-08-21T12:19:10;33.60;99.90
10083;DHT22;5080;48.528;8.078;2023-08-21T12:21:38;33.80;99.90
10083;DHT22;5080;48.528;8.078;2023-08-21T12:24:06;33.90;99.90
10083;DHT22;5080;48.528;8.078;2023-08-21T12:26:33;33.70;99.90
10083;DHT22;5080;48.528;8.078;2023-08-21T12:29:00;33.80;99.90
10083;DHT22;5080;48.528;8.078;2023-08-21T12:31:28;33.80;99.90
10083;DHT22;5080;48.528;8.078;2023-08-21T12:33:55;33.80;99.90
10083;DHT22;5080;48.528;8.078;2023-08-21T12:36:23;33.80;99.90
10083;DHT22;5080;48.528;8.078;2023-08-21T12:38:49;34.00;99.90
10083;DHT22;5080;48.528;8.078;2023-08-21T12:41:18;34.10;99.90
10083;DHT22;5080;48.528;8.078;2023-08-21T12:43:44;33.90;99.90
10083;DHT22;5080;48.528;8.078;2023-08-21T12:46:11;33.90;99.90
10083;DHT22;5080;48.528;8.078;2023-08-21T12:48:38;33.80;99.90
10083;DHT22;5080;48.528;8.078;2023-08-21T12:51:05;33.80;99.90
10083;DHT22;5080;48.528;8.078;2023-08-21T12:53:32;33.80;99.90
10083;DHT22;5080;48.528;8.078;2023-08-21T12:55:58;34.00;99.90
10083;DHT22;5080;48.528;8.078;2023-08-21T12:58:28;34.00;99.90
10083;DHT22;5080;48.528;8.078;2023-08-21T13:00:55;34.00;99.90
10083;DHT22;5080;48.528;8.078;2023-08-21T13:03:22;33.90;99.90
10083;DHT22;5080;48.528;8.078;2023-08-21T13:05:49;34.00;99.90
10083;DHT22;5080;48.528;8.078;2023-08-21T13:08:15;33.90;99.90
10083;DHT22;5080;48.528;8.078;2023-08-21T13:10:42;34.00;99.90
10083;DHT22;5080;48.528;8.078;2023-08-21T13:13:09;33.80;99.90
10083;DHT22;5080;48.528;8.078;2023-08-21T13:15:37;33.80;99.90
10083;DHT22;5080;48.528;8.078;2023-08-21T13:18:04;33.90;99.90
10083;DHT22;5080;48.528;8.078;2023-08-21T13:20:31;33.90;99.90
10083;DHT22;5080;48.528;8.078;2023-08-21T13:22:58;33.90;99.90
10083;DHT22;5080;48.528;8.078;2023-08-21T13:25:25;33.90;99.90
10083;DHT22;5080;48.528;8.078;2023-08-21T13:27:52;33.90;99.90
10083;DHT22;5080;48.528;8.078;2023-08-21T13:30:19;34.10;99.90
10083;DHT22;5080;48.528;8.078;2023-08-21T13:32:49;34.10;99.90
10083;DHT22;5080;48.528;8.078;2023-08-21T13:35:16;34.10;99.90
10083;DHT22;5080;48.528;8.078;2023-08-21T13:37:43;34.00;99.90
10083;DHT22;5080;48.528;8.078;2023-08-21T13:40:10;34.10;99.90
10083;DHT22;5080;48.528;8.078;2023-08-21T13:42:40;34.10;99.90
10083;DHT22;5080;48.528;8.078;2023-08-21T13:45:09;34.20;99.90
10083;DHT22;5080;48.528;8.078;2023-08-21T13:47:37;34.30;99.90
10083;DHT22;5080;48.528;8.078;2023-08-21T13:50:06;34.10;99.90
10083;DHT22;5080;48.528;8.078;2023-08-21T13:52:33;34.00;99.90
10083;DHT22;5080;48.528;8.078;2023-08-21T13:55:00;34.10;99.90
10083;DHT22;5080;48.528;8.078;2023-08-21T13:57:28;34.00;99.90
10083;DHT22;5080;48.528;8.078;2023-08-21T13:59:55;34.00;99.90
10083;DHT22;5080;48.528;8.078;2023-08-21T14:02:21;34.00;99.90
10083;DHT22;5080;48.528;8.078;2023-08-21T14:04:49;34.10;99.90
10083;DHT22;5080;48.528;8.078;2023-08-21T14:07:17;34.10;99.90
10083;DHT22;5080;48.528;8.078;2023-08-21T14:09:44;34.30;99.90
10083;DHT22;5080;48.528;8.078;2023-08-21T14:12:11;34.40;99.90
10083;DHT22;5080;48.528;8.078;2023-08-21T14:14:38;34.50;99.90
10083;DHT22;5080;48.528;8.078;2023-08-21T14:17:05;34.60;99.90
10083;DHT22;5080;48.528;8.078;2023-08-21T14:19:31;34.50;99.90
10083;DHT22;5080;48.528;8.078;2023-08-21T14:21:58;34.50;99.90
10083;DHT22;5080;48.528;8.078;2023-08-21T14:24:26;34.40;99.90
10083;DHT22;5080;48.528;8.078;2023-08-21T14:26:53;34.30;99.90
10083;DHT22;5080;48.528;8.078;2023-08-21T14:29:20;34.30;99.90
10083;DHT22;5080;48.528;8.078;2023-08-21T14:31:47;34.40;99.90
10083;DHT22;5080;48.528;8.078;2023-08-21T14:34:14;34.40;99.90
10083;DHT22;5080;48.528;8.078;2023-08-21T14:36:42;34.40;99.90
10083;DHT22;5080;48.528;8.078;2023-08-21T14:39:08;34.30;99.90
10083;DHT22;5080;48.528;8.078;2023-08-21T14:41:38;34.30;99.90
10083;DHT22;5080;48.528;8.078;2023-08-21T14:44:05;34.20;99.90
10083;DHT22;5080;48.528;8.078;2023-08-21T14:46:32;34.30;99.90
10083;DHT22;5080;48.528;8.078;2023-08-21T14:48:59;34.30;99.90
10083;DHT22;5080;48.528;8.078;2023-08-21T14:51:25;34.30;99.90
10083;DHT22;5080;48.528;8.078;2023-08-21T14:53:52;34.20;99.90
10083;DHT22;5080;48.528;8.078;2023-08-21T14:56:19;34.00;99.90
10083;DHT22;5080;48.528;8.078;2023-08-21T14:58:48;34.10;99.90
10083;DHT22;5080;48.528;8.078;2023-08-21T15:01:15;34.00;99.90
10083;DHT22;5080;48.528;8.078;2023-08-21T15:03:42;34.10;99.90
10083;DHT22;5080;48.528;8.078;2023-08-21T15:06:09;34.00;99.90
10083;DHT22;5080;48.528;8.078;2023-08-21T15:08:38;33.90;99.90
10083;DHT22;5080;48.528;8.078;2023-08-21T15:11:05;34.00;99.90
10083;DHT22;5080;48.528;8.078;2023-08-21T15:13:31;33.90;99.90
10083;DHT22;5080;48.528;8.078;2023-08-21T15:15:59;34.00;99.90
10083;DHT22;5080;48.528;8.078;2023-08-21T15:18:26;34.20;99.90
10083;DHT22;5080;48.528;8.078;2023-08-21T15:20:53;34.30;99.90
10083;DHT22;5080;48.528;8.078;2023-08-21T15:23:20;34.20;99.90
10083;DHT22;5080;48.528;8.078;2023-08-21T15:25:47;34.30;99.90
10083;DHT22;5080;48.528;8.078;2023-08-21T15:28:14;34.30;99.90
10083;DHT22;5080;48.528;8.078;2023-08-21T15:30:40;34.10;99.90
10083;DHT22;5080;48.528;8.078;2023-08-21T15:33:09;34.10;99.90
10083;DHT22;5080;48.528;8.078;2023-08-21T15:35:35;34.10;99.90
10083;DHT22;5080;48.528;8.078;2023-08-21T15:38:02;34.20;99.90
10083;DHT22;5080;48.528;8.078;2023-08-21T15:40:29;34.30;99.90
10083;DHT22;5080;48.528;8.078;2023-08-21T15:42:57;34.10;99.90
10083;DHT22;5080;48.528;8.078;2023-08-21T15:45:25;34.00;99.90
10083;DHT22;5080;48.528;8.078;2023-08-21T15:47:52;33.90;99.90